createdAt,value
2023-04-25T00:00:10.164Z,99570.41
2023-04-25T00:03:02.108Z,99564.22
2023-04-25T00:05:31.622Z,99563.16
2023-04-25T00:08:00.903Z,99563.09
2023-04-25T00:10:29.768Z,99568.84
2023-04-25T00:13:03.234Z,99564.66
2023-04-25T00:15:32.440Z,99562.09
2023-04-25T00:18:01.721Z,99556.84
2023-04-25T00:20:31.091Z,99557.28
2023-04-25T00:23:01.603Z,99549.06
2023-04-25T00:25:30.505Z,99559.28
2023-04-25T00:28:01.088Z,99548.53
2023-04-25T00:30:30.032Z,99557.94
2023-04-25T00:32:59.162Z,99547.94
2023-04-25T00:35:28.259Z,99550.28
2023-04-25T00:37:57.443Z,99557.03
2023-04-25T00:40:26.472Z,99552.00
2023-04-25T00:42:56.177Z,99561.28
2023-04-25T00:45:29.216Z,99565.38
2023-04-25T00:47:58.783Z,99573.00
2023-04-25T00:50:27.604Z,99570.66
2023-04-25T00:52:57.117Z,99569.56
2023-04-25T00:55:26.175Z,99566.25
2023-04-25T00:57:55.445Z,99567.41
2023-04-25T01:00:24.347Z,99570.50
2023-04-25T01:02:55.181Z,99563.72
2023-04-25T01:05:24.303Z,99569.19
2023-04-25T01:07:53.700Z,99567.16
2023-04-25T01:10:23.009Z,99568.78
2023-04-25T01:12:52.200Z,99567.91
2023-04-25T01:15:21.287Z,99568.13
2023-04-25T01:17:50.477Z,99563.81
2023-04-25T01:20:23.261Z,99553.28
2023-04-25T01:22:54.738Z,99569.00
2023-04-25T01:25:24.205Z,99565.34
2023-04-25T01:27:53.509Z,99571.25
2023-04-25T01:30:22.596Z,99563.41
2023-04-25T01:32:52.021Z,99568.88
2023-04-25T01:35:21.074Z,99567.25
2023-04-25T01:37:50.261Z,99567.25
2023-04-25T01:40:21.707Z,99576.34
2023-04-25T01:42:51.000Z,99567.44
2023-04-25T01:45:20.222Z,99570.88
2023-04-25T01:47:50.989Z,99566.81
2023-04-25T01:50:21.144Z,99568.72
2023-04-25T01:52:51.315Z,99581.56
2023-04-25T01:55:23.536Z,99576.31
2023-04-25T01:58:10.974Z,99588.97
2023-04-25T02:01:00.266Z,99582.72
2023-04-25T02:03:34.927Z,99584.56
2023-04-25T02:06:06.610Z,99589.94
2023-04-25T02:08:39.605Z,99588.09
2023-04-25T02:11:09.905Z,99584.56
2023-04-25T02:13:46.389Z,99585.41
2023-04-25T02:16:27.033Z,99585.34
2023-04-25T02:18:56.607Z,99592.09
2023-04-25T02:21:25.371Z,99589.31
2023-04-25T02:23:55.016Z,99588.47
2023-04-25T02:26:25.977Z,99594.88
2023-04-25T02:28:55.250Z,99590.69
2023-04-25T02:31:24.160Z,99584.56
2023-04-25T02:33:54.017Z,99588.31
2023-04-25T02:36:22.964Z,99587.34
2023-04-25T02:38:51.990Z,99590.13
2023-04-25T02:41:23.310Z,99580.28
2023-04-25T02:43:53.840Z,99594.50
2023-04-25T02:46:32.145Z,99591.00
2023-04-25T02:49:07.644Z,99591.81
2023-04-25T02:51:37.430Z,99583.91
2023-04-25T02:54:07.593Z,99592.91
2023-04-25T02:56:40.832Z,99590.13
2023-04-25T02:59:16.763Z,99585.72
2023-04-25T03:01:46.368Z,99591.06
2023-04-25T03:04:15.557Z,99587.56
2023-04-25T03:06:44.390Z,99590.31
2023-04-25T03:09:13.601Z,99586.69
2023-04-25T03:11:42.709Z,99592.03
2023-04-25T03:14:12.127Z,99585.06
2023-04-25T03:16:42.537Z,99586.88
2023-04-25T03:19:11.667Z,99586.88
2023-04-25T03:21:40.635Z,99579.69
2023-04-25T03:24:09.668Z,99585.06
2023-04-25T03:26:39.602Z,99586.88
2023-04-25T03:29:08.702Z,99588.72
2023-04-25T03:31:40.482Z,99585.16
2023-04-25T03:34:11.272Z,99586.88
2023-04-25T03:36:41.766Z,99584.94
2023-04-25T03:39:11.359Z,99589.91
2023-04-25T03:41:41.729Z,99595.94
2023-04-25T03:44:15.635Z,99603.97
2023-04-25T03:46:44.539Z,99600.09
2023-04-25T03:49:17.761Z,99605.81
2023-04-25T03:52:05.011Z,99609.00
2023-04-25T03:54:39.052Z,99610.63
2023-04-25T03:57:11.625Z,99616.50
2023-04-25T03:59:42.449Z,99626.06
2023-04-25T04:02:14.708Z,99620.44
2023-04-25T04:04:46.696Z,99632.00
2023-04-25T04:07:16.645Z,99632.22
2023-04-25T04:09:49.408Z,99631.25
2023-04-25T04:12:26.411Z,99633.69
2023-04-25T04:14:55.696Z,99628.53
2023-04-25T04:17:24.509Z,99640.47
2023-04-25T04:19:56.229Z,99636.63
2023-04-25T04:22:25.240Z,99628.00
2023-04-25T04:24:57.883Z,99634.50
2023-04-25T04:27:47.098Z,99639.47
2023-04-25T04:30:30.554Z,99635.41
2023-04-25T04:33:03.217Z,99641.13
2023-04-25T04:35:34.099Z,99643.03
2023-04-25T04:38:03.291Z,99643.25
2023-04-25T04:40:36.467Z,99634.78
2023-04-25T04:43:27.059Z,99641.00
2023-04-25T04:46:06.103Z,99632.72
2023-04-25T04:48:35.219Z,99642.28
2023-04-25T04:51:26.696Z,99637.97
2023-04-25T04:53:59.388Z,99647.81
2023-04-25T04:56:44.521Z,99644.59
2023-04-25T04:59:25.769Z,99638.66
2023-04-25T05:02:18.356Z,99646.97
2023-04-25T05:05:01.600Z,99649.13
2023-04-25T05:07:54.319Z,99641.88
2023-04-25T05:10:35.413Z,99645.31
2023-04-25T05:13:17.853Z,99645.50
2023-04-25T05:16:07.229Z,99651.81
2023-04-25T05:18:58.072Z,99656.94
2023-04-25T05:21:46.361Z,99657.47
2023-04-25T05:24:35.478Z,99652.38
2023-04-25T05:27:26.731Z,99650.84
2023-04-25T05:30:16.495Z,99658.69
2023-04-25T05:32:59.121Z,99655.25
2023-04-25T05:35:29.688Z,99665.28
2023-04-25T05:37:58.926Z,99670.78
2023-04-25T05:40:47.726Z,99666.97
2023-04-25T05:43:46.171Z,99677.78
2023-04-25T05:46:34.415Z,99677.25
2023-04-25T05:49:19.603Z,99681.47
2023-04-25T05:52:22.087Z,99686.22
2023-04-25T05:55:04.734Z,99692.28
2023-04-25T05:57:36.804Z,99695.38
2023-04-25T06:00:10.242Z,99700.97
2023-04-25T06:02:47.235Z,99699.00
2023-04-25T06:05:17.563Z,99700.47
2023-04-25T06:07:48.670Z,99690.50
2023-04-25T06:10:17.642Z,99701.09
2023-04-25T06:12:48.155Z,99701.34
2023-04-25T06:15:28.249Z,99702.25
2023-04-25T06:18:04.153Z,99700.81
2023-04-25T06:20:33.691Z,99709.84
2023-04-25T06:23:03.716Z,99699.78
2023-04-25T06:25:53.247Z,99709.59
2023-04-25T06:28:25.490Z,99707.81
2023-04-25T06:30:54.657Z,99714.69
2023-04-25T06:33:25.312Z,99714.69
2023-04-25T06:35:55.357Z,99726.59
2023-04-25T06:38:28.942Z,99713.53
2023-04-25T06:40:59.780Z,99717.09
2023-04-25T06:43:34.599Z,99722.78
2023-04-25T06:46:12.446Z,99718.06
2023-04-25T06:48:46.915Z,99712.72
2023-04-25T06:51:16.120Z,99707.19
2023-04-25T06:53:46.851Z,99709.50
2023-04-25T06:56:26.235Z,99716.59
2023-04-25T06:59:11.261Z,99709.34
2023-04-25T07:01:42.349Z,99705.72
2023-04-25T07:04:17.646Z,99714.69
2023-04-25T07:06:51.942Z,99708.22
2023-04-25T07:09:28.477Z,99716.16
2023-04-25T07:11:58.426Z,99716.25
2023-04-25T07:14:29.162Z,99719.59
2023-04-25T07:16:59.296Z,99723.13
2023-04-25T07:19:30.874Z,99729.88
2023-04-25T07:22:03.187Z,99724.69
2023-04-25T07:24:34.064Z,99736.25
2023-04-25T07:27:03.488Z,99729.09
2023-04-25T07:30:00.558Z,99737.78
2023-04-25T07:32:29.602Z,99734.84
2023-04-25T07:34:59.199Z,99739.59
2023-04-25T07:37:28.567Z,99742.13
2023-04-25T07:40:06.322Z,99738.69
2023-04-25T07:42:36.638Z,99745.56
2023-04-25T07:45:11.603Z,99746.25
2023-04-25T07:47:41.902Z,99749.88
2023-04-25T07:50:12.117Z,99756.25
2023-04-25T07:52:41.179Z,99755.84
2023-04-25T07:55:19.490Z,99763.50
2023-04-25T07:58:11.410Z,99758.84
2023-04-25T08:00:44.957Z,99761.44
2023-04-25T08:03:32.605Z,99766.44
2023-04-25T08:06:05.732Z,99769.66
2023-04-25T08:08:42.686Z,99771.09
2023-04-25T08:11:15.228Z,99772.41
2023-04-25T08:13:44.026Z,99772.91
2023-04-25T08:16:14.911Z,99776.97
2023-04-25T08:18:45.413Z,99774.88
2023-04-25T08:21:14.759Z,99777.47
2023-04-25T08:23:43.967Z,99782.66
2023-04-25T08:26:16.638Z,99778.69
2023-04-25T08:28:45.804Z,99793.34
2023-04-25T08:31:16.634Z,99790.22
2023-04-25T08:33:56.935Z,99800.66
2023-04-25T08:36:45.887Z,99795.53
2023-04-25T08:39:25.810Z,99800.53
2023-04-25T08:42:23.412Z,99794.81
2023-04-25T08:44:52.985Z,99797.56
2023-04-25T08:47:24.921Z,99798.91
2023-04-25T08:49:59.675Z,99797.78
2023-04-25T08:52:35.681Z,99798.94
2023-04-25T08:55:05.558Z,99807.13
2023-04-25T08:57:36.746Z,99808.38
2023-04-25T09:00:06.917Z,99808.75
2023-04-25T09:02:41.741Z,99811.63
2023-04-25T09:05:12.105Z,99817.28
2023-04-25T09:07:41.557Z,99818.16
2023-04-25T09:10:10.939Z,99811.44
2023-04-25T09:12:41.891Z,99825.41
2023-04-25T09:15:12.693Z,99827.16
2023-04-25T09:18:09.506Z,99831.00
2023-04-25T09:20:59.612Z,99839.97
2023-04-25T09:23:31.456Z,99830.41
2023-04-25T09:26:00.465Z,99842.09
2023-04-25T09:28:31.024Z,99844.97
2023-04-25T09:31:03.332Z,99841.03
2023-04-25T09:33:42.905Z,99841.72
2023-04-25T09:36:14.329Z,99852.22
2023-04-25T09:39:04.711Z,99849.53
2023-04-25T09:41:39.676Z,99855.41
2023-04-25T09:44:09.260Z,99853.78
2023-04-25T09:46:39.735Z,99852.13
2023-04-25T09:49:16.781Z,99854.75
2023-04-25T09:52:07.564Z,99857.97
2023-04-25T09:54:57.009Z,99864.22
2023-04-25T09:57:32.173Z,99864.03
2023-04-25T10:00:05.852Z,99862.97
2023-04-25T10:02:44.515Z,99870.94
2023-04-25T10:05:22.474Z,99859.16
2023-04-25T10:07:51.608Z,99862.97
2023-04-25T10:10:24.502Z,99861.34
2023-04-25T10:12:53.537Z,99869.88
2023-04-25T10:15:23.741Z,99867.00
2023-04-25T10:17:52.926Z,99863.75
2023-04-25T10:20:24.458Z,99873.69
2023-04-25T10:22:55.150Z,99872.16
2023-04-25T10:25:25.559Z,99874.19
2023-04-25T10:27:54.690Z,99869.47
2023-04-25T10:30:23.907Z,99877.06
2023-04-25T10:32:53.028Z,99874.84
2023-04-25T10:35:26.517Z,99869.66
2023-04-25T10:37:58.913Z,99878.19
2023-04-25T10:40:28.523Z,99882.69
2023-04-25T10:42:57.592Z,99885.47
2023-04-25T10:45:27.900Z,99883.72
2023-04-25T10:47:56.833Z,99883.66
2023-04-25T10:50:39.143Z,99886.53
2023-04-25T10:53:16.473Z,99897.84
2023-04-25T10:55:51.714Z,99885.00
2023-04-25T10:58:23.398Z,99892.56
2023-04-25T11:00:57.619Z,99887.72
2023-04-25T11:03:28.408Z,99886.84
2023-04-25T11:05:58.987Z,99896.31
2023-04-25T11:08:38.661Z,99894.13
2023-04-25T11:11:07.963Z,99894.66
2023-04-25T11:13:36.885Z,99895.66
2023-04-25T11:16:13.015Z,99902.31
2023-04-25T11:18:43.333Z,99896.19
2023-04-25T11:21:14.297Z,99902.25
2023-04-25T11:23:43.371Z,99897.84
2023-04-25T11:26:12.777Z,99904.75
2023-04-25T11:28:41.758Z,99906.09
2023-04-25T11:31:11.571Z,99906.28
2023-04-25T11:33:41.856Z,99910.06
2023-04-25T11:36:11.868Z,99908.97
2023-04-25T11:38:42.770Z,99916.19
2023-04-25T11:41:12.616Z,99912.41
2023-04-25T11:43:43.391Z,99907.91
2023-04-25T11:46:13.076Z,99908.78
2023-04-25T11:48:41.904Z,99920.09
2023-04-25T11:51:11.505Z,99913.75
2023-04-25T11:53:44.610Z,99920.88
2023-04-25T11:56:14.082Z,99918.72
2023-04-25T11:59:02.878Z,99918.56
2023-04-25T12:01:44.724Z,99929.47
2023-04-25T12:04:14.257Z,99927.00
2023-04-25T12:06:44.646Z,99924.00
2023-04-25T12:09:15.656Z,99928.41
2023-04-25T12:11:45.234Z,99923.72
2023-04-25T12:14:14.198Z,99928.38
2023-04-25T12:16:44.543Z,99926.69
2023-04-25T12:19:16.065Z,99920.22
2023-04-25T12:21:57.294Z,99932.47
2023-04-25T12:24:29.411Z,99927.47
2023-04-25T12:27:04.490Z,99931.78
2023-04-25T12:29:41.974Z,99931.19
2023-04-25T12:32:17.987Z,99934.41
2023-04-25T12:34:47.367Z,99933.66
2023-04-25T12:37:16.755Z,99931.72
2023-04-25T12:39:47.168Z,99936.56
2023-04-25T12:42:16.411Z,99942.41
2023-04-25T12:44:45.877Z,99935.78
2023-04-25T12:47:15.218Z,99943.69
2023-04-25T12:49:43.974Z,99943.03
2023-04-25T12:52:13.022Z,99941.28
2023-04-25T12:54:41.990Z,99942.09
2023-04-25T12:57:13.099Z,99936.16
2023-04-25T12:59:42.116Z,99946.06
2023-04-25T13:02:12.316Z,99941.19
2023-04-25T13:04:41.803Z,99933.78
2023-04-25T13:07:10.904Z,99935.41
2023-04-25T13:09:41.123Z,99934.03
2023-04-25T13:12:10.392Z,99942.97
2023-04-25T13:14:40.730Z,99938.88
2023-04-25T13:17:09.781Z,99941.38
2023-04-25T13:19:39.908Z,99941.56
2023-04-25T13:22:09.333Z,99946.53
2023-04-25T13:24:38.345Z,99943.31
2023-04-25T13:27:07.393Z,99949.03
2023-04-25T13:29:36.618Z,99947.09
2023-04-25T13:32:07.220Z,99948.63
2023-04-25T13:34:36.348Z,99944.22
2023-04-25T13:37:06.132Z,99943.25
2023-04-25T13:39:35.114Z,99944.22
2023-04-25T13:42:04.185Z,99938.66
2023-04-25T13:44:33.128Z,99941.91
2023-04-25T13:47:02.305Z,99944.59
2023-04-25T13:49:32.609Z,99947.19
2023-04-25T13:52:01.686Z,99945.19
2023-04-25T13:54:30.785Z,99937.94
2023-04-25T13:57:00.325Z,99945.88
2023-04-25T13:59:29.769Z,99947.41
2023-04-25T14:01:58.816Z,99945.50
2023-04-25T14:04:34.292Z,99949.16
2023-04-25T14:07:23.230Z,99953.44
2023-04-25T14:09:53.885Z,99940.78
2023-04-25T14:12:24.177Z,99944.25
2023-04-25T14:14:55.518Z,99947.72
2023-04-25T14:17:24.733Z,99948.47
2023-04-25T14:19:53.665Z,99947.50
2023-04-25T14:22:24.254Z,99946.63
2023-04-25T14:24:53.262Z,99941.25
2023-04-25T14:27:22.739Z,99951.94
2023-04-25T14:29:51.968Z,99947.50
2023-04-25T14:32:21.580Z,99950.94
2023-04-25T14:34:52.050Z,99952.88
2023-04-25T14:37:22.018Z,99976.47
2023-04-25T14:39:52.467Z,99973.19
2023-04-25T14:42:21.667Z,99978.44
2023-04-25T14:44:53.661Z,99985.34
2023-04-25T14:47:22.931Z,99985.13
2023-04-25T14:49:55.116Z,99990.41
2023-04-25T14:52:25.701Z,99988.34
2023-04-25T14:54:56.122Z,99998.03
2023-04-25T14:57:27.188Z,99994.50
2023-04-25T14:59:56.253Z,99994.16
2023-04-25T15:02:25.792Z,100005.66
2023-04-25T15:04:54.878Z,99999.88
2023-04-25T15:07:24.017Z,100008.38
2023-04-25T15:09:54.346Z,100003.22
2023-04-25T15:12:27.033Z,99999.38
2023-04-25T15:14:56.206Z,99999.03
2023-04-25T15:17:25.262Z,100004.53
2023-04-25T15:19:55.653Z,100009.13
2023-04-25T15:22:24.805Z,100013.41
2023-04-25T15:24:53.740Z,100010.28
2023-04-25T15:27:24.854Z,100002.72
2023-04-25T15:29:56.230Z,100017.22
2023-04-25T15:32:26.274Z,100011.41
2023-04-25T15:34:55.416Z,100017.44
2023-04-25T15:37:24.950Z,100011.28
2023-04-25T15:40:06.937Z,100020.41
2023-04-25T15:42:38.117Z,100020.88
2023-04-25T15:45:11.713Z,100015.84
2023-04-25T15:47:41.354Z,100007.03
2023-04-25T15:50:12.343Z,100008.22
2023-04-25T15:52:45.193Z,100007.84
2023-04-25T15:55:15.906Z,100015.38
2023-04-25T15:57:47.818Z,100018.34
2023-04-25T16:00:17.651Z,100007.19
2023-04-25T16:02:48.397Z,100019.53
2023-04-25T16:05:18.481Z,100019.91
2023-04-25T16:07:48.158Z,100023.69
2023-04-25T16:10:22.010Z,100012.03
2023-04-25T16:12:52.519Z,100014.06
2023-04-25T16:15:23.823Z,100016.69
2023-04-25T16:17:53.601Z,100017.53
2023-04-25T16:20:23.554Z,100020.50
2023-04-25T16:22:52.786Z,100018.91
2023-04-25T16:25:22.860Z,100017.00
2023-04-25T16:27:53.097Z,100022.38
2023-04-25T16:30:22.374Z,100019.84
2023-04-25T16:32:51.254Z,100017.50
2023-04-25T16:35:20.498Z,100015.75
2023-04-25T16:37:49.238Z,100021.88
2023-04-25T16:40:18.536Z,100023.69
2023-04-25T16:42:47.951Z,100028.22
2023-04-25T16:45:22.279Z,100039.28
2023-04-25T16:47:51.870Z,100032.38
2023-04-25T16:50:21.834Z,100037.84
2023-04-25T16:52:51.159Z,100039.72
2023-04-25T16:55:20.388Z,100045.94
2023-04-25T16:57:49.324Z,100043.34
2023-04-25T17:00:20.214Z,100047.66
2023-04-25T17:02:49.312Z,100055.75
2023-04-25T17:05:18.798Z,100048.69
2023-04-25T17:07:47.866Z,100058.41
2023-04-25T17:10:17.147Z,100067.72
2023-04-25T17:12:47.893Z,100060.88
2023-04-25T17:15:17.284Z,100066.88
2023-04-25T17:17:47.894Z,100066.13
2023-04-25T17:20:17.298Z,100071.63
2023-04-25T17:22:46.127Z,100078.56
2023-04-25T17:25:15.354Z,100077.69
2023-04-25T17:27:44.118Z,100081.28
2023-04-25T17:30:17.171Z,100083.41
2023-04-25T17:32:47.828Z,100085.78
2023-04-25T17:35:17.652Z,100097.00
2023-04-25T17:37:46.763Z,100092.75
2023-04-25T17:40:15.961Z,100097.50
2023-04-25T17:42:46.067Z,100098.19
2023-04-25T17:45:15.274Z,100093.84
2023-04-25T17:47:44.142Z,100092.25
2023-04-25T17:50:16.869Z,100097.75
2023-04-25T17:52:48.447Z,100094.53
2023-04-25T17:55:17.950Z,100091.38
2023-04-25T17:57:46.708Z,100090.19
2023-04-25T18:00:16.359Z,100093.81
2023-04-25T18:02:47.587Z,100099.38
2023-04-25T18:05:19.379Z,100097.66
2023-04-25T18:07:49.670Z,100099.06
2023-04-25T18:10:18.739Z,100102.19
2023-04-25T18:12:47.931Z,100114.75
2023-04-25T18:15:17.148Z,100114.41
2023-04-25T18:17:46.177Z,100117.53
2023-04-25T18:20:17.498Z,100114.94
2023-04-25T18:22:49.733Z,100119.31
2023-04-25T18:25:19.104Z,100120.47
2023-04-25T18:27:47.878Z,100123.16
2023-04-25T18:30:17.068Z,100128.69
2023-04-25T18:32:46.827Z,100127.00
2023-04-25T18:35:16.199Z,100131.63
2023-04-25T18:37:45.030Z,100143.28
2023-04-25T18:40:16.363Z,100135.84
2023-04-25T18:42:46.036Z,100143.16
2023-04-25T18:45:15.293Z,100146.34
2023-04-25T18:47:44.109Z,100138.69
2023-04-25T18:50:13.238Z,100145.28
2023-04-25T18:52:42.081Z,100143.53
2023-04-25T18:55:13.296Z,100141.06
2023-04-25T18:57:44.143Z,100147.97
2023-04-25T19:00:14.592Z,100148.78
2023-04-25T19:02:44.164Z,100151.53
2023-04-25T19:05:13.636Z,100156.97
2023-04-25T19:07:42.400Z,100160.84
2023-04-25T19:10:12.249Z,100161.06
2023-04-25T19:12:41.435Z,100160.34
2023-04-25T19:15:12.391Z,100161.47
2023-04-25T19:17:42.317Z,100169.56
2023-04-25T19:20:11.742Z,100161.03
2023-04-25T19:22:41.688Z,100164.50
2023-04-25T19:25:11.425Z,100169.81
2023-04-25T19:27:40.476Z,100168.88
2023-04-25T19:30:12.834Z,100168.38
2023-04-25T19:32:45.379Z,100167.72
2023-04-25T19:35:16.048Z,100175.81
2023-04-25T19:37:47.034Z,100176.13
2023-04-25T19:40:18.017Z,100176.03
2023-04-25T19:42:48.323Z,100177.13
2023-04-25T19:45:17.684Z,100171.13
2023-04-25T19:47:49.132Z,100171.97
2023-04-25T19:50:19.754Z,100175.75
2023-04-25T19:52:52.076Z,100172.94
2023-04-25T19:55:23.304Z,100173.31
2023-04-25T19:57:52.238Z,100165.75
2023-04-25T20:00:22.198Z,100174.94
2023-04-25T20:02:52.537Z,100176.25
2023-04-25T20:05:21.825Z,100167.63
2023-04-25T20:07:50.572Z,100170.34
2023-04-25T20:10:20.364Z,100173.88
2023-04-25T20:12:49.557Z,100166.72
2023-04-25T20:15:19.006Z,100170.94
2023-04-25T20:17:48.579Z,100171.06
2023-04-25T20:20:19.292Z,100170.25
2023-04-25T20:22:48.872Z,100169.44
2023-04-25T20:25:18.293Z,100165.91
2023-04-25T20:27:47.594Z,100159.63
2023-04-25T20:30:16.764Z,100161.47
2023-04-25T20:32:45.924Z,100173.88
2023-04-25T20:35:15.385Z,100166.81
2023-04-25T20:37:46.518Z,100164.28
2023-04-25T20:40:16.252Z,100161.84
2023-04-25T20:42:46.042Z,100167.16
2023-04-25T20:45:16.762Z,100176.94
2023-04-25T20:47:45.989Z,100178.72
2023-04-25T20:50:16.933Z,100176.16
2023-04-25T20:52:49.275Z,100175.34
2023-04-25T20:55:18.712Z,100175.47
2023-04-25T20:57:50.294Z,100179.97
2023-04-25T21:00:27.004Z,100172.91
2023-04-25T21:02:57.707Z,100172.97
2023-04-25T21:05:27.454Z,100183.69
2023-04-25T21:07:58.337Z,100166.09
2023-04-25T21:10:27.828Z,100176.81
2023-04-25T21:12:58.618Z,100176.09
2023-04-25T21:15:30.548Z,100180.72
2023-04-25T21:17:59.545Z,100178.94
2023-04-25T21:20:28.791Z,100182.50
2023-04-25T21:23:02.607Z,100170.19
2023-04-25T21:25:32.977Z,100179.31
2023-04-25T21:28:03.511Z,100174.91
2023-04-25T21:30:33.061Z,100175.81
2023-04-25T21:33:02.254Z,100172.34
2023-04-25T21:35:31.418Z,100182.16
2023-04-25T21:38:01.636Z,100184.00
2023-04-25T21:40:31.051Z,100185.91
2023-04-25T21:43:00.168Z,100181.63
2023-04-25T21:45:31.013Z,100175.44
2023-04-25T21:48:00.346Z,100176.41
2023-04-25T21:50:29.486Z,100178.22
2023-04-25T21:52:59.026Z,100169.41
2023-04-25T21:55:29.752Z,100179.41
2023-04-25T21:57:58.672Z,100182.06
2023-04-25T22:00:28.627Z,100179.94
2023-04-25T22:02:58.028Z,100175.03
2023-04-25T22:05:27.623Z,100173.28
2023-04-25T22:07:57.604Z,100176.75
2023-04-25T22:10:26.723Z,100173.28
2023-04-25T22:12:57.263Z,100169.72
2023-04-25T22:15:26.780Z,100169.81
2023-04-25T22:17:56.123Z,100181.31
2023-04-25T22:20:26.463Z,100174.91
2023-04-25T22:22:56.433Z,100168.94
2023-04-25T22:25:25.812Z,100179.56
2023-04-25T22:27:55.407Z,100175.03
2023-04-25T22:30:25.964Z,100174.97
2023-04-25T22:32:54.947Z,100175.25
2023-04-25T22:35:24.091Z,100175.84
2023-04-25T22:37:53.168Z,100178.59
2023-04-25T22:40:22.425Z,100175.25
2023-04-25T22:42:51.753Z,100170.84
2023-04-25T22:45:20.825Z,100171.09
2023-04-25T22:47:51.136Z,100171.72
2023-04-25T22:50:20.508Z,100167.97
2023-04-25T22:52:49.284Z,100168.84
2023-04-25T22:55:18.535Z,100174.91
2023-04-25T22:57:47.357Z,100166.94
2023-04-25T23:00:20.279Z,100168.78
2023-04-25T23:02:50.501Z,100164.41
2023-04-25T23:05:21.524Z,100161.78
2023-04-25T23:07:50.869Z,100161.63
2023-04-25T23:10:19.907Z,100164.34
2023-04-25T23:12:48.669Z,100159.13
2023-04-25T23:15:18.034Z,100160.81
2023-04-25T23:17:47.590Z,100155.63
2023-04-25T23:20:16.715Z,100156.53
2023-04-25T23:22:47.175Z,100152.03
2023-04-25T23:25:16.530Z,100155.63
2023-04-25T23:27:45.637Z,100161.09
2023-04-25T23:30:15.361Z,100154.25
2023-04-25T23:32:44.374Z,100153.28
2023-04-25T23:35:13.482Z,100158.53
2023-04-25T23:37:42.468Z,100156.00
2023-04-25T23:40:13.336Z,100157.81
2023-04-25T23:42:43.089Z,100156.34
2023-04-25T23:45:14.422Z,100157.97
2023-04-25T23:47:43.446Z,100154.50
2023-04-25T23:50:12.869Z,100159.09
2023-04-25T23:52:41.898Z,100154.78
2023-04-25T23:55:11.026Z,100157.78
2023-04-25T23:57:44.322Z,100160.53
